Osseo, Wisconsin
Current Conditions -  °F | °C
As of 8:56 AM on Thursday 23 Oct 2014 (Local Time) from KEAU Reporting Station
Light Rain Light Rain  
Wind Chill: 44°   Ceiling: 800
Heat Index: 48°   Visibility: 8mi
Dew Point: 46°   Wind: 8mph
Humidity: 93%   Direction: 170°S
Pressure: 30.02"   Gusts: NA
Location:  44.57°N, 91.23°W
Report Text: KEAU 231356Z 17007KT 8SM -RA OVC008 09/08 A3002 RMK AO2 SLP170 P0001 T00890078
Loading
Personal Weather Stations






























Interactive Weather Map
Tropical Storm Tracking
New forecast layout! Learn more

10-Day Weather Forecast

Advertisements
Track Severe Weather on mobile